Pardubice Airport

Airport
ICAO code: 
LKPD
IATA Code: 
PED
Summary
ICAO Region: 
EUR
Territory: 
Location: 
Pardubice, Czech Republic
Serving: 
Pardubice
Elevation: 
741 ft
Coordinates: 
Aerial View: 
50° 0' 55.8" N, 15° 44' 24" E
Metar
Observation
LKPD 020100Z 27012KT 9999 BKN037 08/02 Q0994 RMK BLU
Station
PARDUBICE
Date/Time
2021-12-02 01:00:00
Wind direction
270°
Wind speed
12 kts
Lowest cloud amount
broken clouds
Temperature
8°C
Dew point
2°C
Humidity
65%
QNH
994 hPa
Weather condition
n/a

Description

Military airport (permitted to handle civil air traffic) serving the city of Pardubice, Czech Republic. Mainly used for charter flights.

Climatology

Humid Continental climate (Köppen climate classification Dfb) - Variable weather patterns and a large seasonal temperature variance. Summers are often warm and humid with frequent thunderstorms and winters can be very cold with frequent snowfall and persistent snow cover.

Runways

Designator Length Width Surface Rops
9/27 2500 75 CON No/No
Airport map: 
Aerial View: 

Accidents and Serious Incidents at or in the vicinity of LKPD

SKYbrary Partners:

Safety knowledge contributed by: